createdAt,value
2023-04-27T00:00:29.084Z,44.5671
2023-04-27T00:01:32.961Z,44.4978
2023-04-27T00:02:36.943Z,44.3175
2023-04-27T00:03:41.336Z,43.7360
2023-04-27T00:04:45.464Z,42.6468
2023-04-27T00:05:49.538Z,44.3554
2023-04-27T00:06:53.455Z,44.6967
2023-04-27T00:07:57.365Z,44.6184
2023-04-27T00:09:01.292Z,44.4324
2023-04-27T00:10:05.162Z,43.9241
2023-04-27T00:11:09.071Z,42.1839
2023-04-27T00:12:12.953Z,43.8885
2023-04-27T00:13:17.135Z,44.6445
2023-04-27T00:14:21.031Z,44.5800
2023-04-27T00:15:25.265Z,44.3792
2023-04-27T00:16:29.180Z,44.0076
2023-04-27T00:17:33.093Z,42.1848
2023-04-27T00:18:36.950Z,43.3507
2023-04-27T00:19:40.927Z,44.5939
2023-04-27T00:20:44.794Z,44.6986
2023-04-27T00:21:48.662Z,44.5671
2023-04-27T00:22:52.574Z,44.3562
2023-04-27T00:23:56.455Z,43.1891
2023-04-27T00:25:00.352Z,44.2112
2023-04-27T00:26:04.291Z,44.7057
2023-04-27T00:27:08.155Z,44.6562
2023-04-27T00:28:12.254Z,44.4876
2023-04-27T00:29:16.159Z,44.2225
2023-04-27T00:30:20.282Z,42.3687
2023-04-27T00:31:24.226Z,42.6796
2023-04-27T00:32:28.183Z,44.4901
2023-04-27T00:33:32.070Z,44.7273
2023-04-27T00:34:35.955Z,44.6266
2023-04-27T00:35:39.869Z,44.4452
2023-04-27T00:36:43.766Z,43.3135
2023-04-27T00:37:47.666Z,43.7009
2023-04-27T00:38:51.582Z,44.7202
2023-04-27T00:39:55.694Z,44.7521
2023-04-27T00:40:59.608Z,44.5883
2023-04-27T00:42:03.499Z,44.3708
2023-04-27T00:43:07.404Z,43.2814
2023-04-27T00:44:11.287Z,43.7408
2023-04-27T00:45:15.232Z,44.7592
2023-04-27T00:46:19.313Z,44.8626
2023-04-27T00:47:23.215Z,44.7300
2023-04-27T00:48:27.078Z,44.5129
2023-04-27T00:49:30.983Z,43.2316
2023-04-27T00:50:34.871Z,43.0826
2023-04-27T00:51:38.799Z,44.5920
2023-04-27T00:52:42.679Z,44.7137
2023-04-27T00:53:46.581Z,44.5539
2023-04-27T00:54:50.702Z,44.3419
2023-04-27T00:55:54.593Z,43.2573
2023-04-27T00:56:58.487Z,41.1022
2023-04-27T00:58:02.423Z,43.3997
2023-04-27T00:59:06.303Z,44.6803
2023-04-27T01:00:10.204Z,44.7503
2023-04-27T01:01:14.093Z,44.6051
2023-04-27T01:02:18.036Z,44.2338
2023-04-27T01:03:22.054Z,42.5723
2023-04-27T01:04:26.120Z,44.0596
2023-04-27T01:05:31.995Z,44.8343
2023-04-27T01:06:31.150Z,44.8060
2023-04-27T01:07:35.068Z,44.6406
2023-04-27T01:08:38.947Z,44.3604
2023-04-27T01:09:42.954Z,42.2997
2023-04-27T01:10:46.847Z,42.5233
2023-04-27T01:11:50.845Z,44.5625
2023-04-27T01:12:54.745Z,44.8279
2023-04-27T01:13:58.632Z,44.7239
2023-04-27T01:15:02.547Z,44.5034
2023-04-27T01:16:06.432Z,43.1287
2023-04-27T01:17:10.387Z,41.9069
2023-04-27T01:18:14.330Z,44.2384
2023-04-27T01:19:18.220Z,44.8869
2023-04-27T01:20:22.109Z,44.8518
2023-04-27T01:21:26.017Z,44.6683
2023-04-27T01:22:29.992Z,43.9404
2023-04-27T01:23:33.854Z,42.5624
2023-04-27T01:24:37.745Z,44.4057
2023-04-27T01:25:41.669Z,44.9242
2023-04-27T01:26:45.541Z,44.8264
2023-04-27T01:27:49.687Z,44.6598
2023-04-27T01:28:53.640Z,44.1231
2023-04-27T01:29:57.520Z,42.0848
2023-04-27T01:31:01.426Z,43.7078
2023-04-27T01:32:05.312Z,44.9140
2023-04-27T01:33:09.269Z,44.9862
2023-04-27T01:34:13.175Z,44.8308
2023-04-27T01:35:17.097Z,44.5693
2023-04-27T01:36:21.182Z,42.9290
2023-04-27T01:37:25.404Z,44.1282
2023-04-27T01:38:29.286Z,44.9979
2023-04-27T01:39:33.194Z,44.9865
2023-04-27T01:40:37.115Z,44.7745
2023-04-27T01:41:41.000Z,44.5001
2023-04-27T01:42:44.890Z,42.6606
2023-04-27T01:43:48.817Z,43.1221
2023-04-27T01:44:52.695Z,44.8174
2023-04-27T01:45:56.629Z,45.0078
2023-04-27T01:47:00.496Z,44.8771
2023-04-27T01:48:04.719Z,44.6903
2023-04-27T01:49:08.677Z,43.2199
2023-04-27T01:50:12.623Z,42.4278
2023-04-27T01:51:16.494Z,44.5915
2023-04-27T01:52:20.385Z,45.0823
2023-04-27T01:53:24.289Z,45.0081
2023-04-27T01:54:28.785Z,44.8123
2023-04-27T01:55:32.728Z,43.9251
2023-04-27T01:56:36.614Z,43.1761
2023-04-27T01:57:40.540Z,44.8537
2023-04-27T01:58:44.409Z,45.1370
2023-04-27T01:59:48.318Z,45.0621
2023-04-27T02:00:52.246Z,44.8644
2023-04-27T02:01:56.210Z,44.0823
2023-04-27T02:03:00.203Z,42.6075
2023-04-27T02:04:04.445Z,44.5353
2023-04-27T02:05:08.447Z,45.1037
2023-04-27T02:06:12.522Z,45.0706
2023-04-27T02:07:16.392Z,44.8795
2023-04-27T02:08:20.303Z,44.3541
2023-04-27T02:09:24.179Z,41.9164
2023-04-27T02:10:28.113Z,43.2095
2023-04-27T02:11:32.046Z,44.9832
2023-04-27T02:12:36.066Z,45.0877
2023-04-27T02:13:39.965Z,44.9576
2023-04-27T02:14:43.857Z,44.6927
2023-04-27T02:15:47.772Z,43.0436
2023-04-27T02:16:51.661Z,43.8683
2023-04-27T02:17:55.659Z,45.0779
2023-04-27T02:18:59.623Z,45.1591
2023-04-27T02:20:03.506Z,45.0151
2023-04-27T02:21:07.393Z,44.8045
2023-04-27T02:22:11.285Z,43.1704
2023-04-27T02:23:15.208Z,43.1976
2023-04-27T02:24:19.076Z,44.9755
2023-04-27T02:25:23.005Z,45.2471
2023-04-27T02:26:26.885Z,45.1385
2023-04-27T02:27:30.800Z,44.9627
2023-04-27T02:28:35.100Z,43.5986
2023-04-27T02:29:39.507Z,41.8360
2023-04-27T02:30:43.925Z,44.2980
2023-04-27T02:31:47.911Z,45.2072
2023-04-27T02:32:51.852Z,45.1616
2023-04-27T02:33:55.757Z,44.9720
2023-04-27T02:34:59.639Z,44.3868
2023-04-27T02:36:03.538Z,43.2011
2023-04-27T02:37:07.416Z,44.9154
2023-04-27T02:38:11.360Z,45.3793
2023-04-27T02:39:15.529Z,45.3218
2023-04-27T02:40:19.646Z,45.1416
2023-04-27T02:41:23.524Z,44.5909
2023-04-27T02:42:27.959Z,43.4448
2023-04-27T02:43:31.856Z,44.9928
2023-04-27T02:44:35.800Z,45.3491
2023-04-27T02:45:39.719Z,45.2498
2023-04-27T02:46:43.613Z,45.0303
2023-04-27T02:47:47.632Z,44.4894
2023-04-27T02:48:51.498Z,42.6497
2023-04-27T02:49:55.412Z,44.3146
2023-04-27T02:50:59.331Z,45.2466
2023-04-27T02:52:03.229Z,45.2515
2023-04-27T02:53:07.098Z,45.0658
2023-04-27T02:54:11.016Z,44.7367
2023-04-27T02:55:14.899Z,42.8693
2023-04-27T02:56:19.021Z,44.1293
2023-04-27T02:57:22.964Z,45.2215
2023-04-27T02:58:26.842Z,45.2946
2023-04-27T02:59:30.940Z,45.1370
2023-04-27T03:00:34.896Z,44.8767
2023-04-27T03:01:39.193Z,43.3108
2023-04-27T03:02:43.245Z,44.4297
2023-04-27T03:03:47.263Z,45.3425
2023-04-27T03:04:51.385Z,45.3312
2023-04-27T03:05:55.346Z,45.1491
2023-04-27T03:06:59.251Z,44.9028
2023-04-27T03:08:03.125Z,43.0693
2023-04-27T03:09:07.046Z,43.3683
2023-04-27T03:10:10.939Z,45.1453
2023-04-27T03:11:14.852Z,45.3293
2023-04-27T03:12:18.974Z,45.1900
2023-04-27T03:13:22.879Z,44.9898
2023-04-27T03:14:27.039Z,43.4481
2023-04-27T03:15:30.965Z,42.2237
2023-04-27T03:16:34.855Z,44.5887
2023-04-27T03:17:38.793Z,45.3293
2023-04-27T03:18:42.669Z,45.3126
2023-04-27T03:19:46.573Z,45.1562
2023-04-27T03:20:50.462Z,44.3600
2023-04-27T03:21:54.396Z,42.5007
2023-04-27T03:22:58.268Z,44.4962
2023-04-27T03:24:02.182Z,45.3457
2023-04-27T03:25:06.070Z,45.3566
2023-04-27T03:26:09.977Z,45.1692
2023-04-27T03:27:13.891Z,44.7079
2023-04-27T03:28:17.791Z,42.5730
2023-04-27T03:29:21.678Z,44.0158
2023-04-27T03:30:25.582Z,45.3293
2023-04-27T03:31:29.487Z,45.3868
2023-04-27T03:32:33.420Z,45.2053
2023-04-27T03:33:37.341Z,44.9340
2023-04-27T03:34:41.229Z,42.8359
2023-04-27T03:35:45.113Z,43.1100
2023-04-27T03:36:49.029Z,45.1497
2023-04-27T03:37:52.931Z,45.4288
2023-04-27T03:38:56.809Z,45.3231
2023-04-27T03:40:00.778Z,45.1021
2023-04-27T03:41:04.650Z,43.5543
2023-04-27T03:42:08.564Z,41.9556
2023-04-27T03:43:12.455Z,44.4705
2023-04-27T03:44:16.369Z,45.4432
2023-04-27T03:45:20.245Z,45.4474
2023-04-27T03:46:24.234Z,45.3100
2023-04-27T03:47:28.172Z,44.6475
2023-04-27T03:48:32.064Z,43.9603
2023-04-27T03:49:35.918Z,45.3509
2023-04-27T03:50:39.823Z,45.5765
2023-04-27T03:51:43.714Z,45.4577
2023-04-27T03:52:47.669Z,45.2320
2023-04-27T03:53:51.548Z,44.4513
2023-04-27T03:54:55.452Z,42.8713
2023-04-27T03:55:59.342Z,44.8741
2023-04-27T03:57:03.248Z,45.5743
2023-04-27T03:58:07.299Z,45.5573
2023-04-27T03:59:11.406Z,45.3645
2023-04-27T04:00:15.325Z,44.8654
2023-04-27T04:01:19.213Z,43.1965
2023-04-27T04:02:23.174Z,44.8896
2023-04-27T04:03:27.385Z,45.5528
2023-04-27T04:04:31.797Z,45.4903
2023-04-27T04:05:35.840Z,45.2778
2023-04-27T04:06:39.750Z,44.8232
2023-04-27T04:07:43.647Z,42.6388
2023-04-27T04:08:47.555Z,43.9091
2023-04-27T04:09:51.431Z,45.4158
2023-04-27T04:10:55.356Z,45.5785
2023-04-27T04:11:59.238Z,45.4802
2023-04-27T04:13:03.133Z,45.2324
2023-04-27T04:14:07.049Z,44.2771
2023-04-27T04:15:10.943Z,45.3768
2023-04-27T04:16:14.887Z,45.6687
2023-04-27T04:17:18.797Z,45.5527
2023-04-27T04:18:22.673Z,45.3191
2023-04-27T04:19:26.881Z,44.9333
2023-04-27T04:20:30.745Z,42.4365
2023-04-27T04:21:34.669Z,42.2226
2023-04-27T04:22:38.589Z,44.9586
2023-04-27T04:23:42.492Z,45.5826
2023-04-27T04:24:46.399Z,45.5570
2023-04-27T04:25:50.344Z,45.3763
2023-04-27T04:26:54.197Z,44.0563
2023-04-27T04:27:58.092Z,43.3108
2023-04-27T04:29:02.298Z,45.2890
2023-04-27T04:30:06.355Z,45.6633
2023-04-27T04:31:10.335Z,45.5771
2023-04-27T04:32:14.229Z,45.3748
2023-04-27T04:33:18.133Z,44.3851
2023-04-27T04:34:22.033Z,42.7419
2023-04-27T04:35:25.924Z,44.8976
2023-04-27T04:36:29.834Z,45.6819
2023-04-27T04:37:33.719Z,45.6707
2023-04-27T04:38:37.614Z,45.4867
2023-04-27T04:39:41.544Z,44.8905
2023-04-27T04:40:46.198Z,42.8903
2023-04-27T04:41:50.071Z,44.6861
2023-04-27T04:42:53.950Z,45.6398
2023-04-27T04:43:58.105Z,45.6752
2023-04-27T04:45:02.009Z,45.4853
2023-04-27T04:46:06.020Z,45.0859
2023-04-27T04:47:10.154Z,42.8098
2023-04-27T04:48:14.037Z,43.8393
2023-04-27T04:49:17.957Z,45.5845
2023-04-27T04:50:21.849Z,45.7280
2023-04-27T04:51:25.779Z,45.5872
2023-04-27T04:52:29.699Z,45.3456
2023-04-27T04:53:33.597Z,43.5271
2023-04-27T04:54:37.473Z,43.8876
2023-04-27T04:55:41.379Z,45.6102
2023-04-27T04:56:45.272Z,45.8341
2023-04-27T04:57:49.202Z,45.7376
2023-04-27T04:58:53.070Z,45.5541
2023-04-27T04:59:56.968Z,44.0507
2023-04-27T05:01:00.851Z,44.1100
2023-04-27T05:02:05.189Z,45.6790
2023-04-27T05:03:09.138Z,45.8393
2023-04-27T05:04:13.291Z,45.6931
2023-04-27T05:05:17.367Z,45.4756
2023-04-27T05:06:21.275Z,44.1057
2023-04-27T05:07:25.243Z,43.4898
2023-04-27T05:08:29.111Z,45.5316
2023-04-27T05:09:33.053Z,45.9367
2023-04-27T05:10:36.941Z,45.9072
2023-04-27T05:11:40.832Z,45.7044
2023-04-27T05:12:44.739Z,44.8238
2023-04-27T05:13:48.731Z,44.9426
2023-04-27T05:14:52.598Z,45.8324
2023-04-27T05:15:56.592Z,45.8323
2023-04-27T05:17:00.463Z,45.6404
2023-04-27T05:18:04.411Z,45.4175
2023-04-27T05:19:08.320Z,44.0275
2023-04-27T05:20:12.199Z,41.9296
2023-04-27T05:21:16.136Z,44.4005
2023-04-27T05:22:20.017Z,45.7849
2023-04-27T05:23:24.059Z,45.9146
2023-04-27T05:24:27.970Z,45.7788
2023-04-27T05:25:31.844Z,45.3264
2023-04-27T05:26:35.744Z,45.2919
2023-04-27T05:27:39.691Z,45.9230
2023-04-27T05:28:43.841Z,45.8928
2023-04-27T05:29:47.749Z,45.7156
2023-04-27T05:30:51.633Z,45.5018
2023-04-27T05:31:55.566Z,44.4698
2023-04-27T05:32:59.506Z,41.5494
2023-04-27T05:34:03.446Z,43.0515
2023-04-27T05:35:07.330Z,45.4517
2023-04-27T05:36:11.206Z,45.8413
2023-04-27T05:37:15.129Z,45.7628
2023-04-27T05:38:19.100Z,45.4917
2023-04-27T05:39:23.024Z,43.7640
2023-04-27T05:40:26.871Z,44.8215
2023-04-27T05:41:31.014Z,45.8752
2023-04-27T05:42:34.907Z,45.9023
2023-04-27T05:43:38.816Z,47.4725
2023-04-27T05:44:42.704Z,48.2217
2023-04-27T05:45:46.650Z,47.8734
2023-04-27T05:46:50.557Z,45.9138
2023-04-27T05:47:54.477Z,40.6549
2023-04-27T05:48:58.392Z,36.4094
2023-04-27T05:50:02.322Z,34.4794
2023-04-27T05:51:06.188Z,38.1343
2023-04-27T05:52:10.114Z,44.1589
2023-04-27T05:53:13.992Z,50.1631
2023-04-27T05:54:17.977Z,55.6990
2023-04-27T05:55:21.829Z,57.7942
2023-04-27T05:56:25.753Z,56.3658
2023-04-27T05:57:29.670Z,59.2119
2023-04-27T05:58:33.613Z,62.6687
2023-04-27T05:59:37.505Z,65.5275
2023-04-27T06:00:41.398Z,66.7708
2023-04-27T06:01:45.301Z,60.9926
2023-04-27T06:02:49.383Z,52.9853
2023-04-27T06:03:53.504Z,53.3902
2023-04-27T06:04:57.506Z,57.5264
2023-04-27T06:06:01.399Z,61.8131
2023-04-27T06:07:05.313Z,65.1522
2023-04-27T06:08:09.211Z,63.5494
2023-04-27T06:09:13.243Z,55.4770
2023-04-27T06:10:17.275Z,53.9972
2023-04-27T06:11:21.421Z,57.6548
2023-04-27T06:12:25.335Z,61.8799
2023-04-27T06:13:29.253Z,64.9874
2023-04-27T06:14:33.207Z,64.7818
2023-04-27T06:15:37.110Z,57.5939
2023-04-27T06:16:41.017Z,55.8753
2023-04-27T06:17:44.924Z,59.3323
2023-04-27T06:18:48.825Z,63.1886
2023-04-27T06:19:52.726Z,65.5338
2023-04-27T06:20:56.625Z,64.8539
2023-04-27T06:22:00.538Z,57.7569
2023-04-27T06:23:04.410Z,55.1153
2023-04-27T06:24:08.283Z,58.3583
2023-04-27T06:25:12.183Z,62.2700
2023-04-27T06:26:16.062Z,64.8431
2023-04-27T06:27:20.000Z,64.6553
2023-04-27T06:28:23.889Z,57.8903
2023-04-27T06:29:27.764Z,52.1314
2023-04-27T06:30:31.642Z,54.1983
2023-04-27T06:31:35.601Z,58.6441
2023-04-27T06:32:39.484Z,62.5305
2023-04-27T06:33:43.380Z,64.5409
2023-04-27T06:34:47.430Z,60.8367
2023-04-27T06:35:51.319Z,54.4834
2023-04-27T06:36:55.217Z,55.6105
2023-04-27T06:37:59.185Z,59.6385
2023-04-27T06:39:03.142Z,63.0436
2023-04-27T06:40:07.101Z,64.4053
2023-04-27T06:41:10.980Z,61.6069
2023-04-27T06:42:14.878Z,53.7932
2023-04-27T06:43:18.779Z,52.5672
2023-04-27T06:44:22.938Z,56.2468
2023-04-27T06:45:26.868Z,60.5728
2023-04-27T06:46:30.789Z,63.3058
2023-04-27T06:47:34.788Z,63.0061
2023-04-27T06:48:38.664Z,56.0042
2023-04-27T06:49:42.563Z,51.8384
2023-04-27T06:50:46.482Z,54.6087
2023-04-27T06:51:50.394Z,58.9832
2023-04-27T06:52:54.317Z,62.4329
2023-04-27T06:53:58.199Z,63.5376
2023-04-27T06:55:02.100Z,59.1408
2023-04-27T06:56:06.012Z,55.1874
2023-04-27T06:57:09.932Z,57.8742
2023-04-27T06:58:13.911Z,61.5538
2023-04-27T06:59:17.784Z,63.4555
2023-04-27T07:00:21.702Z,63.4881
2023-04-27T07:01:25.648Z,58.6437
2023-04-27T07:02:29.551Z,52.6066
2023-04-27T07:03:33.599Z,54.1999
2023-04-27T07:04:37.575Z,58.5925
2023-04-27T07:05:41.515Z,62.0272
2023-04-27T07:06:45.442Z,63.2179
2023-04-27T07:07:49.343Z,60.6197
2023-04-27T07:08:53.233Z,54.8049
2023-04-27T07:09:57.319Z,55.9046
2023-04-27T07:11:01.205Z,59.7315
2023-04-27T07:12:05.094Z,62.3472
2023-04-27T07:13:09.579Z,62.8585
2023-04-27T07:14:13.893Z,60.2899
2023-04-27T07:15:17.811Z,52.8417
2023-04-27T07:16:21.784Z,51.3662
2023-04-27T07:17:25.665Z,55.1937
2023-04-27T07:18:29.506Z,59.5379
2023-04-27T07:19:33.406Z,62.0753
2023-04-27T07:20:37.285Z,62.0073
2023-04-27T07:21:41.302Z,56.1161
2023-04-27T07:22:45.192Z,52.6210
2023-04-27T07:23:49.092Z,55.6285
2023-04-27T07:24:53.021Z,59.7202
2023-04-27T07:25:56.914Z,61.9648
2023-04-27T07:27:00.826Z,62.1382
2023-04-27T07:28:04.713Z,57.3029
2023-04-27T07:29:22.975Z,51.1445
2023-04-27T07:30:13.157Z,52.6505
2023-04-27T07:31:17.121Z,56.8073
2023-04-27T07:32:21.043Z,60.5438
2023-04-27T07:33:24.947Z,61.9727
2023-04-27T07:34:32.897Z,59.8834
2023-04-27T07:35:33.619Z,52.5581
2023-04-27T07:36:37.521Z,52.1440
2023-04-27T07:37:41.437Z,55.9692
2023-04-27T07:38:45.352Z,59.9848
2023-04-27T07:39:49.293Z,61.7315
2023-04-27T07:40:53.197Z,61.0710
2023-04-27T07:41:57.147Z,54.8916
2023-04-27T07:43:01.032Z,52.8940
2023-04-27T07:44:04.933Z,56.4373
2023-04-27T07:45:08.823Z,60.1691
2023-04-27T07:46:12.748Z,61.6875
2023-04-27T07:47:16.716Z,61.3820
2023-04-27T07:48:20.680Z,55.9308
2023-04-27T07:49:24.555Z,51.9216
2023-04-27T07:50:28.454Z,54.7293
2023-04-27T07:51:32.337Z,58.8596
2023-04-27T07:52:36.222Z,61.2233
2023-04-27T07:53:40.104Z,61.4978
2023-04-27T07:54:44.053Z,57.5370
2023-04-27T07:55:47.955Z,52.0059
2023-04-27T07:56:51.865Z,53.6382
2023-04-27T07:57:55.761Z,57.8523
2023-04-27T07:58:59.644Z,60.7773
2023-04-27T08:00:03.529Z,61.4569
2023-04-27T08:01:07.532Z,59.1290
2023-04-27T08:02:19.534Z,52.9900
2023-04-27T08:03:16.053Z,53.6312
2023-04-27T08:04:20.628Z,57.4972
2023-04-27T08:05:24.796Z,60.5676
2023-04-27T08:06:29.699Z,61.2490
2023-04-27T08:07:35.507Z,59.6203
2023-04-27T08:08:36.839Z,53.4865
2023-04-27T08:09:40.736Z,53.7239
2023-04-27T08:10:44.644Z,57.6534
2023-04-27T08:11:48.552Z,60.5278
2023-04-27T08:12:52.458Z,61.1891
2023-04-27T08:13:56.407Z,60.0487
2023-04-27T08:15:00.311Z,54.3074
2023-04-27T08:16:04.219Z,53.7188
2023-04-27T08:17:08.146Z,57.4398
2023-04-27T08:18:12.116Z,60.3199
2023-04-27T08:19:16.384Z,60.8948
2023-04-27T08:20:20.332Z,60.0661
2023-04-27T08:21:24.201Z,54.0843
2023-04-27T08:22:28.087Z,51.5971
2023-04-27T08:23:31.999Z,55.0477
2023-04-27T08:24:35.975Z,58.9142
2023-04-27T08:25:39.875Z,60.5364
2023-04-27T08:26:43.813Z,60.4329
2023-04-27T08:27:47.705Z,55.7911
2023-04-27T08:28:51.614Z,51.5471
2023-04-27T08:29:55.542Z,54.1271
2023-04-27T08:30:59.480Z,58.1600
2023-04-27T08:32:03.394Z,60.2814
2023-04-27T08:33:07.355Z,60.5199
2023-04-27T08:34:11.564Z,57.1756
2023-04-27T08:35:15.485Z,51.3181
2023-04-27T08:36:19.358Z,52.3722
2023-04-27T08:37:23.283Z,56.5164
2023-04-27T08:38:27.228Z,59.6093
2023-04-27T08:39:31.149Z,60.3419
2023-04-27T08:40:35.059Z,58.7374
2023-04-27T08:41:38.974Z,52.2035
2023-04-27T08:42:42.871Z,50.6369
2023-04-27T08:43:46.769Z,54.2976
2023-04-27T08:44:50.696Z,58.3463
2023-04-27T08:45:54.597Z,60.1139
2023-04-27T08:46:58.470Z,59.9592
2023-04-27T08:48:02.409Z,55.0953
2023-04-27T08:49:06.339Z,53.3877
2023-04-27T08:50:10.220Z,56.8198
2023-04-27T08:51:14.164Z,59.7532
2023-04-27T08:52:18.055Z,60.3535
2023-04-27T08:53:21.957Z,59.8943
2023-04-27T08:54:25.866Z,55.0880
2023-04-27T08:55:29.789Z,52.6096
2023-04-27T08:56:33.707Z,55.8751
2023-04-27T08:57:37.649Z,59.1925
2023-04-27T08:58:41.548Z,60.1129
2023-04-27T08:59:45.564Z,59.8882
2023-04-27T09:00:50.780Z,55.3738
2023-04-27T09:01:51.145Z,51.1845
2023-04-27T09:02:55.307Z,53.7589
2023-04-27T09:03:59.772Z,57.8195
2023-04-27T09:05:04.170Z,59.8413
2023-04-27T09:06:08.227Z,60.0306
2023-04-27T09:07:08.420Z,57.1546
2023-04-27T09:08:12.338Z,52.0181
2023-04-27T09:09:16.385Z,53.3947
2023-04-27T09:10:20.309Z,57.3878
2023-04-27T09:11:24.189Z,59.6055
2023-04-27T09:12:28.086Z,59.8666
2023-04-27T09:13:31.972Z,58.0401
2023-04-27T09:14:35.867Z,52.5434
2023-04-27T09:15:39.767Z,53.3506
2023-04-27T09:16:44.020Z,57.2033
2023-04-27T09:17:48.032Z,59.4747
2023-04-27T09:18:51.967Z,59.7808
2023-04-27T09:19:55.852Z,58.4686
2023-04-27T09:20:59.762Z,53.0579
2023-04-27T09:22:03.679Z,53.2561
2023-04-27T09:23:07.619Z,57.1776
2023-04-27T09:24:11.506Z,59.4723
2023-04-27T09:25:15.403Z,59.8270
2023-04-27T09:26:19.286Z,58.7730
2023-04-27T09:27:23.479Z,53.5714
2023-04-27T09:28:27.405Z,53.4121
2023-04-27T09:29:31.314Z,57.0524
2023-04-27T09:30:35.202Z,59.2698
2023-04-27T09:31:39.202Z,59.5399
2023-04-27T09:32:43.120Z,58.7088
2023-04-27T09:33:47.036Z,52.9903
2023-04-27T09:34:51.183Z,50.3685
2023-04-27T09:35:55.064Z,53.7868
2023-04-27T09:36:58.951Z,57.6781
2023-04-27T09:38:02.845Z,59.2525
2023-04-27T09:39:06.761Z,59.2227
2023-04-27T09:40:10.645Z,55.5677
2023-04-27T09:41:14.566Z,54.1679
2023-04-27T09:42:18.480Z,57.3981
2023-04-27T09:43:22.351Z,59.1606
2023-04-27T09:44:26.249Z,59.3096
2023-04-27T09:45:30.194Z,58.8164
2023-04-27T09:46:34.073Z,54.0387
2023-04-27T09:47:38.060Z,49.3200
2023-04-27T09:48:41.975Z,51.5399
2023-04-27T09:49:45.856Z,55.8300
2023-04-27T09:50:49.769Z,58.5548
2023-04-27T09:51:53.683Z,59.0978
2023-04-27T09:52:57.592Z,56.8928
2023-04-27T09:54:01.513Z,52.5303
2023-04-27T09:55:05.413Z,54.4666
2023-04-27T09:56:09.325Z,57.8771
2023-04-27T09:57:13.219Z,59.0580
2023-04-27T09:58:17.118Z,59.0602
2023-04-27T09:59:21.049Z,56.8310
2023-04-27T10:00:25.221Z,50.5433
2023-04-27T10:01:29.176Z,49.7910
2023-04-27T10:02:35.116Z,53.6255
2023-04-27T10:03:37.654Z,57.4579
2023-04-27T10:04:41.713Z,58.6006
2023-04-27T10:05:45.689Z,58.2054
2023-04-27T10:06:49.581Z,52.9390
2023-04-27T10:07:53.486Z,49.1882
2023-04-27T10:08:57.537Z,52.0000
2023-04-27T10:10:01.434Z,56.1171
2023-04-27T10:11:05.362Z,58.4493
2023-04-27T10:12:09.265Z,58.8001
2023-04-27T10:13:13.160Z,55.8210
2023-04-27T10:14:17.071Z,51.0957
2023-04-27T10:15:20.988Z,52.9975
2023-04-27T10:16:25.016Z,56.8319
2023-04-27T10:17:25.297Z,58.6491
2023-04-27T10:18:29.193Z,58.8504
2023-04-27T10:19:33.085Z,56.9913
2023-04-27T10:20:37.006Z,51.8659
2023-04-27T10:21:40.912Z,52.8699
2023-04-27T10:22:44.814Z,56.6130
2023-04-27T10:23:48.745Z,58.5620
2023-04-27T10:24:52.656Z,58.7761
2023-04-27T10:25:56.540Z,57.4491
2023-04-27T10:27:00.707Z,52.0212
2023-04-27T10:28:04.617Z,52.0790
2023-04-27T10:29:08.773Z,55.8674
2023-04-27T10:30:12.703Z,58.2757
2023-04-27T10:31:16.654Z,58.7037
2023-04-27T10:32:20.543Z,57.8519
2023-04-27T10:33:24.429Z,53.4374
2023-04-27T10:34:28.336Z,54.0141
2023-04-27T10:35:32.257Z,57.3357
2023-04-27T10:36:36.188Z,58.5682
2023-04-27T10:37:40.090Z,58.5979
2023-04-27T10:38:43.999Z,57.5086
2023-04-27T10:39:49.588Z,52.2998
2023-04-27T10:40:49.014Z,51.7242
2023-04-27T10:41:52.913Z,55.2915
2023-04-27T10:42:56.862Z,57.8349
2023-04-27T10:44:00.758Z,58.3366
2023-04-27T10:45:04.648Z,57.8323
2023-04-27T10:46:08.596Z,53.2359
2023-04-27T10:47:12.747Z,51.4543
2023-04-27T10:48:16.632Z,54.7995
2023-04-27T10:49:20.572Z,57.5623
2023-04-27T10:50:24.436Z,58.1233
2023-04-27T10:51:28.348Z,57.8387
2023-04-27T10:52:32.271Z,53.6160
2023-04-27T10:53:36.179Z,50.5229
2023-04-27T10:54:40.119Z,53.4368
2023-04-27T10:55:44.027Z,56.9127
2023-04-27T10:56:47.938Z,57.9999
2023-04-27T10:57:51.835Z,57.9689
2023-04-27T10:58:55.722Z,54.8056
2023-04-27T10:59:59.612Z,51.0654
2023-04-27T11:01:03.565Z,53.5833
2023-04-27T11:02:07.482Z,56.9293
2023-04-27T11:03:11.619Z,57.9552
2023-04-27T11:04:15.822Z,57.9586
2023-04-27T11:05:19.961Z,55.3212
2023-04-27T11:06:23.841Z,51.1374
2023-04-27T11:07:27.877Z,53.1823
2023-04-27T11:08:31.798Z,56.6649
2023-04-27T11:09:35.748Z,57.8074
2023-04-27T11:10:39.640Z,57.8491
2023-04-27T11:11:43.578Z,55.7697
2023-04-27T11:12:47.472Z,50.4073
2023-04-27T11:13:51.413Z,50.9992
2023-04-27T11:14:55.313Z,54.8290
2023-04-27T11:15:59.258Z,57.2365
2023-04-27T11:17:03.109Z,57.6253
2023-04-27T11:18:07.049Z,56.7244
2023-04-27T11:19:10.989Z,51.3772
2023-04-27T11:20:14.917Z,49.9928
2023-04-27T11:21:19.081Z,53.6674
2023-04-27T11:22:23.005Z,56.9183
2023-04-27T11:23:26.867Z,57.7652
2023-04-27T11:24:30.776Z,57.4918
2023-04-27T11:25:34.730Z,53.5783
2023-04-27T11:26:38.611Z,52.4488
2023-04-27T11:27:42.512Z,55.6850
2023-04-27T11:28:46.746Z,57.4986
2023-04-27T11:29:50.645Z,57.7034
2023-04-27T11:30:54.573Z,57.2388
2023-04-27T11:31:58.776Z,52.8772
2023-04-27T11:33:02.760Z,50.1209
2023-04-27T11:34:07.816Z,53.2331
2023-04-27T11:35:11.794Z,56.5575
2023-04-27T11:36:15.689Z,57.4418
2023-04-27T11:37:19.572Z,57.3303
2023-04-27T11:38:23.569Z,53.9158
2023-04-27T11:39:27.492Z,48.8936
2023-04-27T11:40:31.393Z,50.5018
2023-04-27T11:41:35.325Z,54.6179
2023-04-27T11:42:39.219Z,57.0459
2023-04-27T11:43:43.121Z,57.4623
2023-04-27T11:44:47.074Z,56.0558
2023-04-27T11:45:50.937Z,50.8400
2023-04-27T11:46:54.917Z,51.0297
2023-04-27T11:47:58.847Z,54.7780
2023-04-27T11:49:02.986Z,56.9974
2023-04-27T11:50:06.879Z,57.3461
2023-04-27T11:51:10.816Z,56.5765
2023-04-27T11:52:14.715Z,51.3385
2023-04-27T11:53:18.941Z,48.8003
2023-04-27T11:54:22.991Z,52.1758
2023-04-27T11:55:26.914Z,55.9111
2023-04-27T11:56:30.823Z,57.2341
2023-04-27T11:57:34.756Z,57.2435
2023-04-27T11:58:38.681Z,53.8275
2023-04-27T11:59:42.559Z,49.6562
2023-04-27T12:00:46.462Z,51.9670
2023-04-27T12:01:50.607Z,55.7749
2023-04-27T12:02:54.665Z,57.2787
2023-04-27T12:04:02.145Z,57.4083
2023-04-27T12:05:01.183Z,55.2257
2023-04-27T12:06:21.504Z,50.6484
2023-04-27T12:07:09.755Z,52.1866
2023-04-27T12:08:13.664Z,55.6600
2023-04-27T12:09:17.577Z,57.1323
2023-04-27T12:10:21.514Z,57.2198
2023-04-27T12:11:25.484Z,55.8688
2023-04-27T12:12:29.399Z,50.6139
2023-04-27T12:13:33.318Z,50.5901
2023-04-27T12:14:37.221Z,54.4535
2023-04-27T12:15:41.134Z,56.9136
2023-04-27T12:16:45.090Z,57.3315
2023-04-27T12:17:49.050Z,56.6948
2023-04-27T12:18:52.971Z,51.9980
2023-04-27T12:19:56.904Z,50.4692
2023-04-27T12:21:02.983Z,54.0192
2023-04-27T12:22:01.888Z,56.7915
2023-04-27T12:23:05.842Z,57.2736
2023-04-27T12:24:09.729Z,57.0178
2023-04-27T12:25:13.613Z,53.2191
2023-04-27T12:26:17.522Z,49.6908
2023-04-27T12:27:21.411Z,52.4136
2023-04-27T12:28:25.326Z,55.8741
2023-04-27T12:29:29.276Z,56.9742
2023-04-27T12:30:33.154Z,56.9982
2023-04-27T12:31:37.071Z,54.4760
2023-04-27T12:32:40.970Z,49.2808
2023-04-27T12:33:45.119Z,50.3298
2023-04-27T12:34:49.020Z,54.3087
2023-04-27T12:35:53.195Z,56.6249
2023-04-27T12:36:57.074Z,56.9612
2023-04-27T12:38:00.959Z,55.9478
2023-04-27T12:39:04.876Z,50.6617
2023-04-27T12:40:08.754Z,49.3436
2023-04-27T12:41:12.636Z,53.0229
2023-04-27T12:42:16.568Z,56.1292
2023-04-27T12:43:20.429Z,56.9419
2023-04-27T12:44:24.315Z,56.7107
2023-04-27T12:45:28.199Z,52.6824
2023-04-27T12:46:32.137Z,49.4242
2023-04-27T12:48:37.559Z,55.8996
2023-04-27T12:49:41.420Z,56.9639
2023-04-27T12:50:45.315Z,56.9720
2023-04-27T12:51:49.207Z,54.4722
2023-04-27T12:52:53.100Z,50.0854
2023-04-27T12:53:58.725Z,51.9988